Time;durP1;ratioP1;P1;durP2;ratioP2;P2;SDS_P1;SDS_P2;PMS_P1;PMS_P2;Temp;Humidity;BMP_temperature;BMP_pressure;BME280_temperature;BME280_humidity;BME280_pressure;Samples;Min_cycle;Max_cycle;Signal;HPM_P1;HPM_P2
2023/10/13 00:01:23;;;;;;;58.53;26.83;;;14.20;99.90;;;;;;5049941;28;20373;-75
2023/10/13 00:03:48;;;;;;;58.92;26.80;;;14.20;99.90;;;;;;5049609;28;20052;-73
2023/10/13 00:06:15;;;;;;;63.33;26.52;;;14.30;99.90;;;;;;5049749;28;20037;-73
2023/10/13 00:08:41;;;;;;;64.60;28.02;;;14.30;99.90;;;;;;5049345;28;20033;-74
2023/10/13 00:11:11;;;;;;;56.85;26.70;;;14.30;99.90;;;;;;5049642;28;20044;-74
2023/10/13 00:13:43;;;;;;;55.67;25.67;;;14.30;99.90;;;;;;5049543;28;20516;-72
2023/10/13 00:16:17;;;;;;;54.25;25.25;;;14.40;99.90;;;;;;5052361;28;20033;-73
2023/10/13 00:18:43;;;;;;;55.10;27.48;;;14.40;99.90;;;;;;5053757;28;20048;-73
2023/10/13 00:21:13;;;;;;;59.67;27.52;;;14.50;99.90;;;;;;5053547;28;20041;-75
2023/10/13 00:23:52;;;;;;;51.85;26.25;;;14.50;99.90;;;;;;5053620;28;20036;-74
2023/10/13 00:26:18;;;;;;;56.70;26.52;;;14.50;99.90;;;;;;5053757;28;20503;-74
2023/10/13 00:28:46;;;;;;;66.65;28.00;;;14.50;99.90;;;;;;5053321;28;20389;-74
2023/10/13 00:31:13;;;;;;;58.03;26.95;;;14.60;99.90;;;;;;5053331;28;20044;-75
2023/10/13 00:33:46;;;;;;;57.20;26.65;;;14.60;99.90;;;;;;5053318;28;20052;-75
2023/10/13 00:36:17;;;;;;;57.33;25.98;;;14.60;99.90;;;;;;5053147;28;20175;-74
2023/10/13 00:38:42;;;;;;;56.00;26.42;;;14.70;99.90;;;;;;5052981;28;20037;-75
2023/10/13 00:41:14;;;;;;;47.78;24.67;;;14.70;99.90;;;;;;5053292;28;20049;-75
2023/10/13 00:44:07;;;;;;;56.15;25.27;;;14.70;99.90;;;;;;5053127;28;20064;-75
2023/10/13 00:46:34;;;;;;;51.58;25.08;;;14.70;99.90;;;;;;5053290;28;20052;-75
2023/10/13 00:49:01;;;;;;;54.88;26.15;;;14.80;99.90;;;;;;5052899;28;20076;-75
2023/10/13 00:51:40;;;;;;;58.35;26.27;;;14.80;99.90;;;;;;5053218;28;20045;-75
2023/10/13 00:54:13;;;;;;;66.00;26.55;;;14.90;99.90;;;;;;5053042;28;20052;-75
2023/10/13 00:56:48;;;;;;;60.10;27.63;;;14.90;99.90;;;;;;5052808;28;20047;-74
2023/10/13 00:59:17;;;;;;;74.25;28.13;;;14.90;99.90;;;;;;5052552;28;20121;-74
2023/10/13 01:01:43;;;;;;;64.65;26.52;;;15.00;99.90;;;;;;5052724;28;20037;-74
2023/10/13 01:04:12;;;;;;;61.42;27.02;;;15.00;99.90;;;;;;5052689;28;20059;-75
2023/10/13 01:06:38;;;;;;;61.58;27.13;;;15.00;99.90;;;;;;5036163;28;20101;-74
2023/10/13 01:09:18;;;;;;;68.45;27.40;;;15.00;99.90;;;;;;5052423;28;20116;-75
2023/10/13 01:11:54;;;;;;;58.13;26.30;;;15.00;99.90;;;;;;5052593;28;20048;-75
2023/10/13 01:14:20;;;;;;;50.05;24.65;;;15.10;99.90;;;;;;5052675;28;20106;-75
2023/10/13 01:16:47;;;;;;;58.25;26.48;;;15.10;99.90;;;;;;5052525;28;20526;-74
2023/10/13 01:19:21;;;;;;;51.75;24.55;;;15.10;99.90;;;;;;5035667;28;20153;-75
2023/10/13 01:21:54;;;;;;;59.00;25.58;;;15.20;99.90;;;;;;5052442;28;20048;-75
2023/10/13 01:24:23;;;;;;;51.95;23.67;;;15.20;99.90;;;;;;5052353;28;20124;-75
2023/10/13 01:26:51;;;;;;;56.80;24.95;;;15.20;99.90;;;;;;5034776;28;20072;-75
2023/10/13 01:29:18;;;;;;;62.17;24.73;;;15.30;99.90;;;;;;5051953;28;20090;-75
2023/10/13 01:31:45;;;;;;;51.88;23.05;;;15.30;99.90;;;;;;5053628;28;20044;-74
2023/10/13 01:34:24;;;;;;;52.33;22.95;;;15.30;99.90;;;;;;5052169;28;20053;-75
2023/10/13 01:36:54;;;;;;;50.20;22.15;;;15.30;99.90;;;;;;5039354;28;20052;-75
2023/10/13 01:39:28;;;;;;;48.65;22.77;;;15.40;99.90;;;;;;5052090;28;20475;-75
2023/10/13 01:41:57;;;;;;;43.90;20.67;;;15.40;99.90;;;;;;5052114;28;20389;-75
2023/10/13 01:44:24;;;;;;;46.65;20.90;;;15.40;99.90;;;;;;5051914;28;20171;-74
2023/10/13 01:46:51;;;;;;;42.38;20.02;;;15.40;99.90;;;;;;5051925;28;20040;-75
2023/10/13 01:49:16;;;;;;;42.30;20.08;;;15.40;99.90;;;;;;5035014;28;20118;-74
2023/10/13 01:51:42;;;;;;;39.97;19.67;;;15.40;99.90;;;;;;5035279;28;20112;-76
2023/10/13 01:54:12;;;;;;;37.38;18.08;;;15.40;99.90;;;;;;5051835;28;20411;-75
2023/10/13 01:56:42;;;;;;;41.45;18.70;;;15.40;99.90;;;;;;5051687;28;20037;-75
2023/10/13 01:59:09;;;;;;;39.45;18.02;;;15.40;99.90;;;;;;5051459;28;20045;-74
2023/10/13 02:01:35;;;;;;;38.67;18.55;;;15.50;99.90;;;;;;5051765;28;20049;-74
2023/10/13 02:04:04;;;;;;;34.83;17.67;;;15.50;99.90;;;;;;5051552;28;20107;-74
2023/10/13 02:06:36;;;;;;;34.20;17.88;;;15.50;99.90;;;;;;5035222;28;20051;-75
2023/10/13 02:11:39;;;;;;;38.08;17.88;;;15.50;99.90;;;;;;5051687;28;20427;-75
2023/10/13 02:14:05;;;;;;;27.98;16.52;;;15.50;99.90;;;;;;5051369;28;20072;-75
2023/10/13 02:16:31;;;;;;;35.97;17.10;;;15.50;99.90;;;;;;5051630;28;20084;-75
2023/10/13 02:18:57;;;;;;;28.08;17.10;;;15.50;99.90;;;;;;5051107;28;20098;-75
2023/10/13 02:21:31;;;;;;;30.33;16.42;;;15.60;99.90;;;;;;5051594;28;20052;-75
2023/10/13 02:24:00;;;;;;;35.47;17.67;;;15.60;99.90;;;;;;5051265;28;20122;-74
2023/10/13 02:26:38;;;;;;;28.90;16.38;;;15.60;99.90;;;;;;5051354;28;20472;-76
2023/10/13 02:29:07;;;;;;;32.90;17.10;;;15.60;99.90;;;;;;5034409;28;20047;-76
2023/10/13 02:31:35;;;;;;;31.52;17.58;;;15.60;99.90;;;;;;5051036;28;20033;-76
2023/10/13 02:34:06;;;;;;;32.30;17.05;;;15.60;99.90;;;;;;5034507;28;20043;-76
2023/10/13 02:36:46;;;;;;;35.58;16.88;;;15.60;99.90;;;;;;5050945;28;20090;-76
2023/10/13 02:39:13;;;;;;;32.38;16.27;;;15.60;99.90;;;;;;5050804;28;20037;-76
2023/10/13 02:41:40;;;;;;;29.17;16.15;;;15.60;99.90;;;;;;5050771;28;20132;-74
2023/10/13 02:44:06;;;;;;;34.38;16.30;;;15.60;99.90;;;;;;5051244;28;20445;-75
2023/10/13 02:46:35;;;;;;;29.60;16.77;;;15.60;99.90;;;;;;5050892;28;20045;-76
2023/10/13 02:49:09;;;;;;;32.78;17.50;;;15.60;99.90;;;;;;5050495;28;20045;-74
2023/10/13 02:51:35;;;;;;;31.17;17.27;;;15.60;99.90;;;;;;5050730;28;20044;-76
2023/10/13 02:54:11;;;;;;;33.45;18.42;;;15.70;99.90;;;;;;5050712;28;20040;-75
2023/10/13 02:56:48;;;;;;;35.08;18.95;;;15.70;99.90;;;;;;5050586;28;20041;-76
2023/10/13 02:59:14;;;;;;;40.70;20.73;;;15.70;99.90;;;;;;5033848;28;20033;-76
2023/10/13 03:01:40;;;;;;;38.70;21.65;;;15.70;99.90;;;;;;5050454;28;20572;-75
2023/10/13 03:04:12;;;;;;;44.95;21.80;;;15.70;99.90;;;;;;5050372;28;20049;-75
2023/10/13 03:06:40;;;;;;;46.75;22.85;;;15.80;99.90;;;;;;5050365;28;20047;-75
2023/10/13 03:09:19;;;;;;;45.40;22.48;;;15.80;99.90;;;;;;5050440;28;20396;-75
2023/10/13 03:11:48;;;;;;;47.78;22.00;;;15.80;99.90;;;;;;5050303;28;20041;-76
2023/10/13 03:14:31;;;;;;;45.67;22.75;;;15.90;99.90;;;;;;5050547;28;20051;-75
2023/10/13 03:17:03;;;;;;;48.55;23.70;;;15.80;99.90;;;;;;5033608;28;20033;-75
2023/10/13 03:19:32;;;;;;;41.53;22.70;;;15.80;99.90;;;;;;5050018;28;20044;-75
2023/10/13 03:22:11;;;;;;;49.88;23.30;;;15.90;99.90;;;;;;5050158;28;20040;-75
2023/10/13 03:24:46;;;;;;;44.97;22.10;;;15.80;99.90;;;;;;5050032;28;20041;-76
2023/10/13 03:27:24;;;;;;;47.25;22.83;;;15.90;99.90;;;;;;5050259;28;20037;-76
2023/10/13 03:29:56;;;;;;;43.38;21.58;;;15.90;99.90;;;;;;5049786;28;20037;-73
2023/10/13 03:32:26;;;;;;;38.15;20.42;;;15.90;99.90;;;;;;5050035;28;20089;-75
2023/10/13 03:37:37;;;;;;;31.95;17.20;;;15.80;99.90;;;;;;5050062;28;20059;-75
2023/10/13 03:40:33;;;;;;;28.35;15.18;;;15.90;99.90;;;;;;5049784;28;20053;-75
2023/10/13 03:45:42;;;;;;;24.15;14.73;;;15.90;99.90;;;;;;5049737;28;20056;-76
2023/10/13 03:48:27;;;;;;;21.48;13.60;;;15.80;99.90;;;;;;5049988;28;20052;-76
2023/10/13 03:51:01;;;;;;;21.15;12.98;;;15.90;99.90;;;;;;5049169;28;20040;-76
2023/10/13 03:53:33;;;;;;;24.60;14.63;;;15.90;99.90;;;;;;5049732;28;20036;-76
2023/10/13 03:56:08;;;;;;;28.75;14.63;;;15.90;99.90;;;;;;5049709;28;20055;-74
2023/10/13 03:58:36;;;;;;;22.55;14.73;;;15.90;99.90;;;;;;5032706;28;20041;-74
2023/10/13 04:01:03;;;;;;;25.23;13.98;;;15.90;99.90;;;;;;5050007;28;20397;-75
2023/10/13 04:03:34;;;;;;;23.85;14.07;;;15.90;99.90;;;;;;5049537;28;20119;-75
2023/10/13 04:06:06;;;;;;;31.50;15.75;;;15.90;99.90;;;;;;5049605;28;20052;-75
2023/10/13 04:09:37;;;;;;;32.80;15.02;;;15.90;99.90;;;;;;5049159;28;20041;-74
2023/10/13 04:11:52;;;;;;;28.25;14.85;;;15.90;99.90;;;;;;5049790;28;20071;-74
2023/10/13 04:14:55;;;;;;;27.25;15.85;;;15.90;99.90;;;;;;5049670;28;20045;-75
2023/10/13 04:17:14;;;;;;;26.02;15.10;;;15.90;99.90;;;;;;5049184;28;20127;-75
2023/10/13 04:20:12;;;;;;;32.40;16.70;;;15.90;99.90;;;;;;5049543;28;20462;-74
2023/10/13 04:23:17;;;;;;;29.38;15.00;;;15.90;99.90;;;;;;5049559;28;20052;-75
2023/10/13 04:25:35;;;;;;;28.45;14.70;;;16.00;99.90;;;;;;5049015;28;20052;-74
2023/10/13 04:33:36;;;;;;;28.55;14.23;;;15.90;99.90;;;;;;5036081;28;20041;-75
2023/10/13 04:38:56;;;;;;;22.35;12.63;;;16.00;99.90;;;;;;5049198;28;20044;-75
2023/10/13 04:41:36;;;;;;;26.33;12.82;;;16.00;99.90;;;;;;5049229;28;20539;-75
2023/10/13 04:44:05;;;;;;;20.52;12.20;;;16.00;99.90;;;;;;5032846;28;20124;-74
2023/10/13 04:46:54;;;;;;;23.05;13.05;;;16.00;99.90;;;;;;5049199;28;20045;-75
2023/10/13 04:49:28;;;;;;;28.02;13.85;;;16.00;99.90;;;;;;5049198;28;20045;-75
2023/10/13 04:57:47;;;;;;;26.20;13.82;;;16.00;99.90;;;;;;5049182;28;20049;-76
2023/10/13 05:51:46;;;;;;;12.75;8.60;;;15.80;99.90;;;;;;5051998;28;20045;-76
2023/10/13 06:28:40;;;;;;;13.60;8.45;;;15.70;99.90;;;;;;5051947;28;20513;-75
2023/10/13 06:30:00;;;;;;;9.23;6.68;;;15.70;99.90;;;;;;5050905;28;20052;-74
2023/10/13 06:32:26;;;;;;;11.20;6.88;;;15.70;99.90;;;;;;5050992;28;20091;-76
2023/10/13 06:35:08;;;;;;;9.38;6.55;;;15.70;99.90;;;;;;5051451;28;20037;-76
2023/10/13 06:37:34;;;;;;;8.02;6.57;;;15.70;99.90;;;;;;5051021;28;20056;-75
2023/10/13 06:40:14;;;;;;;7.47;5.90;;;15.70;99.90;;;;;;5050651;28;20041;-76
2023/10/13 06:42:42;;;;;;;9.43;6.68;;;15.70;99.90;;;;;;5050926;28;20044;-75
2023/10/13 06:45:09;;;;;;;7.40;5.90;;;15.80;99.90;;;;;;5050714;28;20504;-76
2023/10/13 06:47:48;;;;;;;9.10;5.93;;;15.70;99.90;;;;;;5050803;28;20036;-76
2023/10/13 06:50:15;;;;;;;6.10;5.00;;;15.70;99.90;;;;;;5050556;28;20037;-77
2023/10/13 06:52:47;;;;;;;7.50;5.10;;;15.80;99.90;;;;;;5051084;28;20389;-76
2023/10/13 06:55:17;;;;;;;7.15;4.95;;;15.90;99.90;;;;;;5050583;28;20043;-76
2023/10/13 06:57:43;;;;;;;7.25;5.20;;;15.90;99.90;;;;;;5034071;28;20054;-76
2023/10/13 07:00:19;;;;;;;7.15;5.35;;;16.00;99.90;;;;;;5050535;28;20491;-75
2023/10/13 07:02:51;;;;;;;6.50;5.13;;;16.00;99.90;;;;;;5050957;28;20404;-75
2023/10/13 07:05:17;;;;;;;10.43;5.43;;;16.00;99.90;;;;;;5050372;28;20044;-75
2023/10/13 07:07:44;;;;;;;7.35;5.03;;;16.00;99.90;;;;;;5050606;28;20041;-75
2023/10/13 07:10:13;;;;;;;9.38;5.50;;;16.10;99.90;;;;;;5050397;28;20454;-76
2023/10/13 07:12:43;;;;;;;8.70;5.03;;;16.10;99.90;;;;;;5050423;28;20041;-76
2023/10/13 07:15:19;;;;;;;9.63;5.43;;;16.10;99.90;;;;;;5050224;28;20052;-75
2023/10/13 07:17:54;;;;;;;9.48;5.22;;;16.10;99.90;;;;;;5033937;28;20036;-75
2023/10/13 07:20:33;;;;;;;9.50;5.13;;;16.10;99.90;;;;;;5049873;28;20041;-75
2023/10/13 07:23:03;;;;;;;12.27;5.45;;;16.00;99.90;;;;;;5050485;28;20048;-76
2023/10/13 07:25:37;;;;;;;10.48;5.40;;;16.10;99.90;;;;;;5049309;28;20044;-75
2023/10/13 07:28:03;;;;;;;11.10;5.00;;;16.10;99.90;;;;;;5050280;28;20052;-75
2023/10/13 07:30:31;;;;;;;9.45;5.32;;;16.10;99.90;;;;;;5049909;28;20516;-75
2023/10/13 07:32:59;;;;;;;11.18;5.70;;;16.00;99.90;;;;;;5050197;28;20037;-75
2023/10/13 07:35:26;;;;;;;9.75;5.05;;;16.00;99.90;;;;;;5050044;28;20125;-75
2023/10/13 07:37:53;;;;;;;11.85;5.10;;;16.00;99.90;;;;;;5049817;28;20055;-74
2023/10/13 07:40:39;;;;;;;10.27;5.18;;;16.10;99.90;;;;;;5049708;28;20053;-75
2023/10/13 07:43:09;;;;;;;12.55;5.47;;;16.00;99.90;;;;;;5050042;28;20401;-75
2023/10/13 07:45:40;;;;;;;10.63;5.25;;;16.00;99.90;;;;;;5049770;28;20496;-76
2023/10/13 07:48:20;;;;;;;12.15;5.45;;;16.00;99.90;;;;;;5049697;28;20036;-77
2023/10/13 07:51:11;;;;;;;10.70;5.10;;;16.00;99.90;;;;;;5050137;28;20041;-76
2023/10/13 07:53:40;;;;;;;14.40;5.45;;;16.00;99.90;;;;;;5049616;28;20040;-75
2023/10/13 07:56:08;;;;;;;11.60;5.47;;;16.00;99.90;;;;;;5049781;28;20075;-75
2023/10/13 07:58:34;;;;;;;9.02;5.22;;;16.00;99.90;;;;;;5049426;28;20475;-75
2023/10/13 08:03:34;;;;;;;12.15;5.93;;;16.00;99.90;;;;;;5049743;28;20072;-75
2023/10/13 08:08:38;;;;;;;14.35;5.45;;;16.00;99.90;;;;;;5049302;28;20049;-75
2023/10/13 08:11:11;;;;;;;11.27;5.22;;;16.00;99.90;;;;;;5049505;28;20397;-75
2023/10/13 08:13:46;;;;;;;10.88;5.43;;;16.10;99.90;;;;;;5049724;28;20037;-75
2023/10/13 08:16:20;;;;;;;12.27;5.00;;;16.10;99.90;;;;;;5049466;28;20045;-75
2023/10/13 08:18:49;;;;;;;11.43;5.65;;;16.10;99.90;;;;;;5049045;28;20045;-75
2023/10/13 08:21:22;;;;;;;11.93;5.25;;;16.10;99.90;;;;;;5049812;28;20408;-75
2023/10/13 08:34:59;;;;;;;12.35;5.30;;;16.30;99.90;;;;;;5049464;28;20049;-76
2023/10/13 08:45:52;;;;;;;14.15;5.95;;;16.40;99.90;;;;;;5053216;28;20393;-75
2023/10/13 08:48:07;;;;;;;16.08;6.38;;;16.50;99.90;;;;;;5052589;28;20045;-74
2023/10/13 08:50:47;;;;;;;13.45;6.45;;;16.50;99.90;;;;;;5036224;28;20031;-75
2023/10/13 08:54:07;;;;;;;13.00;6.10;;;16.60;99.90;;;;;;5053217;28;20419;-75
2023/10/13 08:59:05;;;;;;;14.38;6.55;;;16.60;99.90;;;;;;5052942;28;20389;-74
2023/10/13 09:01:34;;;;;;;14.75;6.93;;;16.70;99.90;;;;;;5052963;28;20041;-75
2023/10/13 09:07:03;;;;;;;13.05;7.20;;;16.90;99.90;;;;;;5052788;28;20072;-74
2023/10/13 09:09:41;;;;;;;14.75;7.88;;;16.90;99.90;;;;;;5052761;28;20048;-75
2023/10/13 09:12:14;;;;;;;13.90;7.53;;;17.00;99.90;;;;;;5052692;28;20036;-74
2023/10/13 09:14:44;;;;;;;17.95;7.55;;;17.00;99.90;;;;;;5052535;28;20052;-74
2023/10/13 09:19:47;;;;;;;16.40;7.97;;;17.20;99.90;;;;;;5052317;28;20041;-75
2023/10/13 09:22:38;;;;;;;15.82;8.48;;;17.30;99.90;;;;;;5052673;28;20043;-73
2023/10/13 09:25:05;;;;;;;15.32;7.10;;;17.30;99.90;;;;;;5052424;28;20124;-74
2023/10/13 09:27:33;;;;;;;15.05;7.25;;;17.40;99.90;;;;;;5052304;28;20028;-74
2023/10/13 09:30:09;;;;;;;11.20;6.93;;;17.50;99.90;;;;;;5035571;28;20041;-75
2023/10/13 09:32:50;;;;;;;15.55;7.25;;;17.60;99.90;;;;;;5052245;28;20037;-74
2023/10/13 09:35:22;;;;;;;13.57;7.20;;;17.60;99.90;;;;;;5052312;28;20082;-74
2023/10/13 09:37:50;;;;;;;13.43;7.25;;;17.60;99.90;;;;;;5052099;28;20245;-74
2023/10/13 09:43:15;;;;;;;15.73;7.22;;;17.70;99.90;;;;;;5043376;28;20051;-75
2023/10/13 09:45:56;;;;;;;12.70;7.07;;;17.70;99.90;;;;;;5051981;28;20049;-74
2023/10/13 09:48:26;;;;;;;14.82;7.07;;;17.80;99.90;;;;;;5050780;28;20033;-76
2023/10/13 09:50:56;;;;;;;15.45;6.78;;;17.90;99.90;;;;;;5051760;28;20060;-75
2023/10/13 09:53:23;;;;;;;12.98;6.57;;;17.90;99.90;;;;;;5051783;28;20036;-74
2023/10/13 09:56:00;;;;;;;11.52;6.13;;;18.00;99.90;;;;;;5051864;28;20116;-73
2023/10/13 09:58:35;;;;;;;13.32;6.40;;;18.10;99.90;;;;;;5051516;28;20040;-75
2023/10/13 10:01:10;;;;;;;13.80;6.03;;;18.10;99.90;;;;;;5051775;28;20041;-75
2023/10/13 10:04:07;;;;;;;13.80;6.18;;;18.20;99.90;;;;;;5051686;28;20037;-75
2023/10/13 10:06:39;;;;;;;14.05;6.53;;;18.30;99.90;;;;;;5035099;28;20068;-75
2023/10/13 10:09:12;;;;;;;13.18;5.88;;;18.30;99.90;;;;;;5051265;28;20516;-75
2023/10/13 10:11:40;;;;;;;13.07;5.60;;;18.40;99.90;;;;;;5051604;28;20071;-75
2023/10/13 10:14:24;;;;;;;13.07;5.88;;;18.40;99.90;;;;;;5051580;28;20273;-75
2023/10/13 10:17:07;;;;;;;15.32;5.60;;;18.40;99.90;;;;;;5051628;28;20065;-75
2023/10/13 10:19:35;;;;;;;12.73;5.47;;;18.40;99.90;;;;;;5034536;28;20041;-76
2023/10/13 10:22:16;;;;;;;13.88;5.10;;;18.50;99.90;;;;;;5051298;28;20080;-75
2023/10/13 10:24:43;;;;;;;12.52;5.60;;;18.50;99.90;;;;;;5051261;28;20437;-75
2023/10/13 10:27:14;;;;;;;10.65;4.88;;;18.60;99.90;;;;;;5051117;28;20040;-75
2023/10/13 10:29:52;;;;;;;14.02;5.43;;;18.60;99.90;;;;;;5034346;28;20040;-75
2023/10/13 10:32:18;;;;;;;12.68;5.40;;;18.70;99.90;;;;;;5051112;28;20040;-75
2023/10/13 10:34:44;;;;;;;12.18;5.38;;;18.70;99.90;;;;;;5051131;28;20079;-76
2023/10/13 10:37:12;;;;;;;14.45;5.70;;;18.80;99.90;;;;;;5051178;28;20476;-76
2023/10/13 10:39:47;;;;;;;11.82;5.00;;;18.80;99.90;;;;;;5034579;28;20423;-75
2023/10/13 10:42:23;;;;;;;16.40;5.30;;;18.90;99.90;;;;;;5051147;28;20480;-77
2023/10/13 10:45:06;;;;;;;14.07;5.50;;;18.90;99.90;;;;;;5050736;28;20095;-77
2023/10/13 10:47:32;;;;;;;16.73;5.35;;;19.00;99.90;;;;;;5050757;28;20535;-75
2023/10/13 10:50:00;;;;;;;15.65;5.45;;;19.00;99.90;;;;;;5034134;28;20550;-75
2023/10/13 10:52:27;;;;;;;21.80;5.80;;;19.00;99.90;;;;;;5050828;28;20091;-76
2023/10/13 10:54:59;;;;;;;10.43;5.07;;;19.00;99.90;;;;;;5050628;28;20041;-77
2023/10/13 10:57:28;;;;;;;15.20;5.28;;;19.00;99.90;;;;;;5050688;28;20443;-76
2023/10/13 11:00:10;;;;;;;13.00;5.03;;;19.10;99.90;;;;;;5050447;28;20045;-75
2023/10/13 11:02:37;;;;;;;15.50;5.60;;;19.20;99.90;;;;;;5050932;28;20586;-75
2023/10/13 11:05:05;;;;;;;14.20;5.60;;;19.20;99.90;;;;;;5050558;28;20152;-75
2023/10/13 11:07:31;;;;;;;17.23;5.45;;;19.30;99.90;;;;;;5050386;28;20518;-76
2023/10/13 11:10:11;;;;;;;11.68;5.22;;;19.40;99.90;;;;;;5050222;28;20033;-75
2023/10/13 11:12:39;;;;;;;17.05;5.60;;;19.40;99.90;;;;;;5050450;28;20125;-74
2023/10/13 11:15:14;;;;;;;15.38;5.78;;;19.50;99.90;;;;;;5034121;28;20447;-75
2023/10/13 11:17:48;;;;;;;17.27;4.78;;;19.50;99.90;;;;;;5050464;28;20036;-76
2023/10/13 11:20:17;;;;;;;11.95;5.13;;;19.50;99.90;;;;;;5050323;28;20412;-75
2023/10/13 11:22:50;;;;;;;15.48;5.50;;;19.50;99.90;;;;;;5050381;28;20048;-76
2023/10/13 11:25:34;;;;;;;12.70;4.67;;;19.40;99.90;;;;;;5050424;28;20495;-77
2023/10/13 11:28:20;;;;;;;15.32;5.00;;;19.40;99.90;;;;;;5050676;28;20037;-75
2023/10/13 11:30:52;;;;;;;16.33;5.53;;;19.40;99.90;;;;;;5049520;28;20041;-76
2023/10/13 11:33:19;;;;;;;12.52;5.03;;;19.40;99.90;;;;;;5050003;28;20531;-75
2023/10/13 11:38:26;;;;;;;15.35;5.47;;;19.50;99.90;;;;;;5049593;28;20045;-76
2023/10/13 11:43:35;;;;;;;14.02;5.10;;;19.30;99.90;;;;;;5050041;28;20056;-76
2023/10/13 11:48:36;;;;;;;17.85;6.32;;;19.00;99.90;;;;;;5049549;28;20037;-76
2023/10/13 11:51:25;;;;;;;17.95;6.22;;;19.00;99.90;;;;;;5033403;28;20404;-76
2023/10/13 11:53:53;;;;;;;18.35;5.80;;;18.90;99.90;;;;;;5049488;28;20090;-77
2023/10/13 11:56:20;;;;;;;13.25;6.00;;;18.80;99.90;;;;;;5049759;28;20045;-76
2023/10/13 11:58:47;;;;;;;16.65;5.88;;;18.80;99.90;;;;;;5049594;28;20396;-76
2023/10/13 12:06:46;;;;;;;16.90;6.05;;;18.70;99.90;;;;;;5049825;28;20049;-75
2023/10/13 12:11:41;;;;;;;14.27;5.72;;;18.80;99.90;;;;;;5053390;28;20743;-76
2023/10/13 12:14:21;;;;;;;13.80;6.15;;;18.90;99.90;;;;;;5056084;28;20052;-75
2023/10/13 12:16:51;;;;;;;17.95;6.10;;;18.90;99.90;;;;;;5039813;28;20033;-75
2023/10/13 12:19:23;;;;;;;12.88;5.70;;;19.00;99.90;;;;;;5039188;28;20511;-76
2023/10/13 12:21:54;;;;;;;14.50;5.65;;;19.00;99.90;;;;;;5039574;28;20136;-76
2023/10/13 12:27:18;;;;;;;12.00;5.97;;;19.10;99.90;;;;;;5056049;28;20044;-75
2023/10/13 12:29:47;;;;;;;11.77;5.65;;;19.20;99.90;;;;;;5055824;28;20041;-76
2023/10/13 12:32:14;;;;;;;17.42;5.88;;;19.20;99.90;;;;;;5056048;28;20033;-77
2023/10/13 12:37:49;;;;;;;14.75;6.20;;;19.10;99.90;;;;;;5056340;28;20483;-78
2023/10/13 12:51:21;;;;;;;16.38;5.78;;;18.80;99.90;;;;;;5055731;28;20504;-77
2023/10/13 12:53:51;;;;;;;14.95;6.68;;;18.80;99.90;;;;;;5039285;28;20064;-77
2023/10/13 12:56:25;;;;;;;14.80;6.35;;;18.70;99.90;;;;;;5055964;28;20040;-77
2023/10/13 12:58:52;;;;;;;14.20;6.80;;;18.70;99.90;;;;;;5055730;28;20104;-77
2023/10/13 13:01:23;;;;;;;14.02;6.38;;;18.70;99.90;;;;;;5055845;28;20064;-78
2023/10/13 13:03:49;;;;;;;14.95;6.65;;;18.60;99.90;;;;;;5055620;28;20065;-78
2023/10/13 13:06:24;;;;;;;15.57;7.25;;;18.60;99.90;;;;;;5055825;28;20098;-77
2023/10/13 13:08:53;;;;;;;16.45;6.78;;;18.50;99.90;;;;;;5055377;28;20036;-77
2023/10/13 13:11:20;;;;;;;15.18;7.05;;;18.50;99.90;;;;;;5056003;28;20470;-77
2023/10/13 13:13:46;;;;;;;15.63;7.13;;;18.50;99.90;;;;;;5055805;28;20091;-76
2023/10/13 13:16:18;;;;;;;18.88;7.15;;;18.40;99.90;;;;;;5039099;28;20040;-77
2023/10/13 13:18:44;;;;;;;15.75;7.43;;;18.30;99.90;;;;;;5055321;28;20048;-77
2023/10/13 13:21:19;;;;;;;12.15;7.07;;;18.30;99.90;;;;;;5055906;28;20063;-76
2023/10/13 13:23:45;;;;;;;15.77;7.50;;;18.30;99.90;;;;;;5035228;28;20503;-77
2023/10/13 13:26:17;;;;;;;15.32;8.13;;;18.30;99.90;;;;;;5052340;28;20080;-77
2023/10/13 13:28:43;;;;;;;15.65;7.22;;;18.20;99.90;;;;;;5051927;28;20037;-76
2023/10/13 13:31:12;;;;;;;15.88;7.60;;;18.20;99.90;;;;;;5052250;28;20071;-75
2023/10/13 13:33:38;;;;;;;20.92;8.32;;;18.10;99.90;;;;;;5052501;28;20041;-77
2023/10/13 13:36:05;;;;;;;16.65;8.20;;;18.10;99.90;;;;;;5052230;28;20072;-77
2023/10/13 13:38:32;;;;;;;19.25;7.82;;;18.10;99.90;;;;;;5052090;28;20512;-76
2023/10/13 13:40:58;;;;;;;13.40;7.07;;;18.10;99.90;;;;;;5051937;28;20051;-77
2023/10/13 13:43:50;;;;;;;16.20;7.90;;;18.10;99.90;;;;;;5051926;28;20048;-77
2023/10/13 13:46:17;;;;;;;17.67;8.10;;;18.10;99.90;;;;;;5051957;28;20045;-77
2023/10/13 13:48:43;;;;;;;19.17;8.10;;;18.10;99.90;;;;;;5051621;28;20033;-77
2023/10/13 13:51:15;;;;;;;16.23;7.70;;;18.10;99.90;;;;;;5052291;28;20054;-77
2023/10/13 13:53:44;;;;;;;24.02;8.32;;;18.10;99.90;;;;;;5051814;28;20028;-77
2023/10/13 13:56:12;;;;;;;19.52;7.25;;;18.10;99.90;;;;;;5051840;28;20040;-76
2023/10/13 13:58:38;;;;;;;15.63;7.47;;;18.10;99.90;;;;;;5034894;28;20504;-76
2023/10/13 14:01:14;;;;;;;16.10;7.88;;;18.10;99.90;;;;;;5051810;28;20051;-76
2023/10/13 14:03:47;;;;;;;18.08;7.95;;;18.10;99.90;;;;;;5051919;28;20168;-76
2023/10/13 14:06:18;;;;;;;15.65;7.82;;;18.10;99.90;;;;;;5051725;28;20048;-77
2023/10/13 14:08:56;;;;;;;20.60;7.63;;;18.10;99.90;;;;;;5051124;28;20033;-75
2023/10/13 14:14:12;;;;;;;17.63;7.53;;;18.20;99.90;;;;;;5051838;28;20501;-76
2023/10/13 14:16:44;;;;;;;15.82;7.90;;;18.20;99.90;;;;;;5051779;28;20033;-75
2023/10/13 14:19:29;;;;;;;19.50;7.90;;;18.20;99.90;;;;;;5034464;28;20059;-76
2023/10/13 14:21:58;;;;;;;15.10;7.10;;;18.20;99.90;;;;;;5035250;28;20409;-77
2023/10/13 14:24:28;;;;;;;16.25;9.23;;;18.20;99.90;;;;;;5037868;28;20033;-76
2023/10/13 14:27:17;;;;;;;17.60;7.57;;;18.30;99.90;;;;;;5051519;28;20064;-76
2023/10/13 14:29:43;;;;;;;15.68;7.25;;;18.30;99.90;;;;;;5051034;28;20041;-77
2023/10/13 14:32:12;;;;;;;17.67;7.68;;;18.30;99.90;;;;;;5051212;28;20063;-76
2023/10/13 14:34:41;;;;;;;16.58;6.90;;;18.30;99.90;;;;;;5050716;28;20044;-78
2023/10/13 14:37:07;;;;;;;21.30;7.57;;;18.20;99.90;;;;;;5051381;28;20420;-76
2023/10/13 14:39:35;;;;;;;17.58;7.35;;;18.20;99.90;;;;;;5050622;28;20040;-76
2023/10/13 14:42:05;;;;;;;17.73;7.78;;;18.20;99.90;;;;;;5050909;28;20106;-77
2023/10/13 14:44:34;;;;;;;15.77;7.78;;;18.40;99.90;;;;;;5050881;28;20136;-77
2023/10/13 14:47:01;;;;;;;15.05;7.07;;;18.30;99.90;;;;;;5034246;28;20481;-76
2023/10/13 14:49:27;;;;;;;17.85;7.53;;;18.30;99.90;;;;;;5050768;28;20037;-76
2023/10/13 14:51:54;;;;;;;19.38;7.30;;;18.30;99.90;;;;;;5050739;28;20546;-77
2023/10/13 14:54:32;;;;;;;13.35;7.03;;;18.30;99.90;;;;;;5050533;28;20063;-75
2023/10/13 14:57:01;;;;;;;15.07;7.47;;;18.30;99.90;;;;;;5050755;28;20078;-77
2023/10/13 14:59:27;;;;;;;15.60;7.10;;;18.30;99.90;;;;;;5050373;28;20041;-77
2023/10/13 15:01:53;;;;;;;17.35;7.05;;;18.20;99.90;;;;;;5050734;28;20404;-77
2023/10/13 15:04:24;;;;;;;19.05;8.18;;;18.20;99.90;;;;;;5050586;28;20037;-77
2023/10/13 15:06:50;;;;;;;23.13;7.15;;;18.30;99.90;;;;;;5050690;28;20049;-76
2023/10/13 15:09:23;;;;;;;15.20;7.63;;;18.30;99.90;;;;;;5050871;28;20052;-77
2023/10/13 15:11:50;;;;;;;18.25;6.88;;;18.20;99.90;;;;;;5050313;28;20045;-76
2023/10/13 15:14:20;;;;;;;15.05;7.07;;;18.20;99.90;;;;;;5050399;28;20107;-76
2023/10/13 15:16:46;;;;;;;18.40;7.63;;;18.10;99.90;;;;;;5050631;28;20115;-77
2023/10/13 15:19:12;;;;;;;19.13;7.75;;;18.10;99.90;;;;;;5050084;28;20033;-77
2023/10/13 15:21:39;;;;;;;16.85;8.13;;;18.00;99.90;;;;;;5050705;28;20029;-77
2023/10/13 15:24:21;;;;;;;18.80;7.93;;;18.00;99.90;;;;;;5034121;28;20032;-78
2023/10/13 15:26:52;;;;;;;15.55;8.23;;;18.00;99.90;;;;;;5033888;28;20696;-76
2023/10/13 15:29:24;;;;;;;16.17;8.10;;;17.90;99.90;;;;;;5050172;28;20037;-77
2023/10/13 15:34:28;;;;;;;16.02;7.53;;;17.90;99.90;;;;;;5050086;28;20044;-77
2023/10/13 15:36:56;;;;;;;16.67;7.53;;;17.80;99.90;;;;;;5050090;28;20068;-76
2023/10/13 15:39:28;;;;;;;18.08;8.27;;;17.80;99.90;;;;;;5049959;28;20037;-77
2023/10/13 15:41:58;;;;;;;19.30;8.85;;;17.80;99.90;;;;;;5049994;28;20041;-77
2023/10/13 15:44:29;;;;;;;15.02;8.18;;;17.80;99.90;;;;;;5049994;28;20467;-77
2023/10/13 15:46:56;;;;;;;16.50;7.95;;;17.80;99.90;;;;;;5032503;28;20033;-76
2023/10/13 15:49:22;;;;;;;17.48;8.57;;;17.80;99.90;;;;;;5050166;28;20041;-77
2023/10/13 15:51:49;;;;;;;16.52;8.27;;;17.70;99.90;;;;;;5050279;28;20099;-77
2023/10/13 15:54:16;;;;;;;17.70;8.48;;;17.70;99.90;;;;;;5050160;28;20045;-77
2023/10/13 15:56:47;;;;;;;19.48;9.88;;;17.70;99.90;;;;;;5050509;28;20037;-77